sensor_id;sensor_type;location;lat;lon;timestamp;temperature;humidity
18741;DHT22;9499;52.472;13.448;2022-10-16T00:01:31;15.20;99.90
18741;DHT22;9499;52.472;13.448;2022-10-16T00:03:59;15.30;99.90
18741;DHT22;9499;52.472;13.448;2022-10-16T00:06:27;15.30;99.90
18741;DHT22;9499;52.472;13.448;2022-10-16T00:08:55;15.30;99.90
18741;DHT22;9499;52.472;13.448;2022-10-16T00:11:23;15.30;99.90
18741;DHT22;9499;52.472;13.448;2022-10-16T00:13:54;15.40;99.90
18741;DHT22;9499;52.472;13.448;2022-10-16T00:16:22;15.30;99.90
18741;DHT22;9499;52.472;13.448;2022-10-16T00:18:49;15.40;99.90
18741;DHT22;9499;52.472;13.448;2022-10-16T00:21:18;15.40;99.90
18741;DHT22;9499;52.472;13.448;2022-10-16T00:23:45;15.40;99.90
18741;DHT22;9499;52.472;13.448;2022-10-16T00:26:14;15.40;99.90
18741;DHT22;9499;52.472;13.448;2022-10-16T00:28:41;15.50;99.90
18741;DHT22;9499;52.472;13.448;2022-10-16T00:31:09;15.50;99.90
18741;DHT22;9499;52.472;13.448;2022-10-16T00:33:38;15.50;99.90
18741;DHT22;9499;52.472;13.448;2022-10-16T00:36:07;15.50;99.90
18741;DHT22;9499;52.472;13.448;2022-10-16T00:38:34;15.50;99.90
18741;DHT22;9499;52.472;13.448;2022-10-16T00:41:00;15.50;99.90
18741;DHT22;9499;52.472;13.448;2022-10-16T00:43:38;15.60;99.90
18741;DHT22;9499;52.472;13.448;2022-10-16T00:46:11;15.60;99.90
18741;DHT22;9499;52.472;13.448;2022-10-16T00:48:39;15.50;99.90
18741;DHT22;9499;52.472;13.448;2022-10-16T00:51:06;15.60;99.90
18741;DHT22;9499;52.472;13.448;2022-10-16T00:53:34;15.60;99.90
18741;DHT22;9499;52.472;13.448;2022-10-16T00:56:01;15.60;99.90
18741;DHT22;9499;52.472;13.448;2022-10-16T00:58:28;15.60;99.90
18741;DHT22;9499;52.472;13.448;2022-10-16T01:00:56;15.60;99.90
18741;DHT22;9499;52.472;13.448;2022-10-16T01:03:25;15.60;99.90
18741;DHT22;9499;52.472;13.448;2022-10-16T01:06:00;15.60;99.90
18741;DHT22;9499;52.472;13.448;2022-10-16T01:08:35;15.60;99.90
18741;DHT22;9499;52.472;13.448;2022-10-16T01:11:10;15.60;99.90
18741;DHT22;9499;52.472;13.448;2022-10-16T01:13:43;15.60;99.90
18741;DHT22;9499;52.472;13.448;2022-10-16T01:16:17;15.70;99.90
18741;DHT22;9499;52.472;13.448;2022-10-16T01:18:53;15.70;99.90
18741;DHT22;9499;52.472;13.448;2022-10-16T01:21:23;15.70;99.90
18741;DHT22;9499;52.472;13.448;2022-10-16T01:24:01;15.70;99.90
18741;DHT22;9499;52.472;13.448;2022-10-16T01:26:37;15.70;99.90
18741;DHT22;9499;52.472;13.448;2022-10-16T01:29:09;15.70;99.90
18741;DHT22;9499;52.472;13.448;2022-10-16T01:31:40;15.70;99.90
18741;DHT22;9499;52.472;13.448;2022-10-16T01:34:12;15.60;99.90
18741;DHT22;9499;52.472;13.448;2022-10-16T01:36:47;15.60;99.90
18741;DHT22;9499;52.472;13.448;2022-10-16T01:39:21;15.50;99.90
18741;DHT22;9499;52.472;13.448;2022-10-16T01:41:54;15.50;99.90
18741;DHT22;9499;52.472;13.448;2022-10-16T01:44:26;15.60;99.90
18741;DHT22;9499;52.472;13.448;2022-10-16T01:46:54;15.50;99.90
18741;DHT22;9499;52.472;13.448;2022-10-16T01:49:23;15.50;99.90
18741;DHT22;9499;52.472;13.448;2022-10-16T01:51:54;15.50;99.90
18741;DHT22;9499;52.472;13.448;2022-10-16T01:54:22;15.50;99.90
18741;DHT22;9499;52.472;13.448;2022-10-16T01:56:50;15.50;99.90
18741;DHT22;9499;52.472;13.448;2022-10-16T01:59:20;15.50;99.90
18741;DHT22;9499;52.472;13.448;2022-10-16T02:01:50;15.50;99.90
18741;DHT22;9499;52.472;13.448;2022-10-16T02:04:21;15.50;99.90
18741;DHT22;9499;52.472;13.448;2022-10-16T02:06:49;15.50;99.90
18741;DHT22;9499;52.472;13.448;2022-10-16T02:09:16;15.50;99.90
18741;DHT22;9499;52.472;13.448;2022-10-16T02:11:43;15.50;99.90
18741;DHT22;9499;52.472;13.448;2022-10-16T02:14:10;15.50;99.90
18741;DHT22;9499;52.472;13.448;2022-10-16T02:16:38;15.50;99.90
18741;DHT22;9499;52.472;13.448;2022-10-16T02:19:07;15.50;99.90
18741;DHT22;9499;52.472;13.448;2022-10-16T02:21:40;15.50;99.90
18741;DHT22;9499;52.472;13.448;2022-10-16T02:24:14;15.50;99.90
18741;DHT22;9499;52.472;13.448;2022-10-16T02:26:46;15.50;99.90
18741;DHT22;9499;52.472;13.448;2022-10-16T02:29:18;15.50;99.90
18741;DHT22;9499;52.472;13.448;2022-10-16T02:31:49;15.50;99.90
18741;DHT22;9499;52.472;13.448;2022-10-16T02:34:19;15.50;99.90
18741;DHT22;9499;52.472;13.448;2022-10-16T02:36:50;15.50;99.90
18741;DHT22;9499;52.472;13.448;2022-10-16T02:39:19;15.50;99.90
18741;DHT22;9499;52.472;13.448;2022-10-16T02:41:47;15.50;99.90
18741;DHT22;9499;52.472;13.448;2022-10-16T02:44:13;15.50;99.90
18741;DHT22;9499;52.472;13.448;2022-10-16T02:46:40;15.60;99.90
18741;DHT22;9499;52.472;13.448;2022-10-16T02:49:06;15.50;99.90
18741;DHT22;9499;52.472;13.448;2022-10-16T02:51:34;15.50;99.90
18741;DHT22;9499;52.472;13.448;2022-10-16T02:54:01;15.60;99.90
18741;DHT22;9499;52.472;13.448;2022-10-16T02:56:28;15.60;99.90
18741;DHT22;9499;52.472;13.448;2022-10-16T02:58:55;15.60;99.90
18741;DHT22;9499;52.472;13.448;2022-10-16T03:01:21;15.60;99.90
18741;DHT22;9499;52.472;13.448;2022-10-16T03:03:49;15.60;99.90
18741;DHT22;9499;52.472;13.448;2022-10-16T03:06:15;15.70;99.90
18741;DHT22;9499;52.472;13.448;2022-10-16T03:08:43;15.60;99.90
18741;DHT22;9499;52.472;13.448;2022-10-16T03:11:10;15.60;99.90
18741;DHT22;9499;52.472;13.448;2022-10-16T03:13:36;15.70;99.90
18741;DHT22;9499;52.472;13.448;2022-10-16T03:16:03;15.70;99.90
18741;DHT22;9499;52.472;13.448;2022-10-16T03:18:30;15.60;99.90
18741;DHT22;9499;52.472;13.448;2022-10-16T03:20:56;15.60;99.90
18741;DHT22;9499;52.472;13.448;2022-10-16T03:23:22;15.70;99.90
18741;DHT22;9499;52.472;13.448;2022-10-16T03:25:50;15.70;99.90
18741;DHT22;9499;52.472;13.448;2022-10-16T03:28:17;15.70;99.90
18741;DHT22;9499;52.472;13.448;2022-10-16T03:30:44;15.70;99.90
18741;DHT22;9499;52.472;13.448;2022-10-16T03:33:10;15.70;99.90
18741;DHT22;9499;52.472;13.448;2022-10-16T03:35:37;15.70;99.90
18741;DHT22;9499;52.472;13.448;2022-10-16T03:38:03;15.60;99.90
18741;DHT22;9499;52.472;13.448;2022-10-16T03:40:30;15.60;99.90
18741;DHT22;9499;52.472;13.448;2022-10-16T03:42:59;15.60;99.90
18741;DHT22;9499;52.472;13.448;2022-10-16T03:45:25;15.50;99.90
18741;DHT22;9499;52.472;13.448;2022-10-16T03:47:52;15.50;99.90
18741;DHT22;9499;52.472;13.448;2022-10-16T03:50:19;15.50;99.90
18741;DHT22;9499;52.472;13.448;2022-10-16T03:52:45;15.50;99.90
18741;DHT22;9499;52.472;13.448;2022-10-16T03:55:12;15.40;99.90
18741;DHT22;9499;52.472;13.448;2022-10-16T03:57:39;15.40;99.90
18741;DHT22;9499;52.472;13.448;2022-10-16T04:00:08;15.40;99.90
18741;DHT22;9499;52.472;13.448;2022-10-16T04:02:34;15.40;99.90
18741;DHT22;9499;52.472;13.448;2022-10-16T04:05:01;15.40;99.90
18741;DHT22;9499;52.472;13.448;2022-10-16T04:07:27;15.40;99.90
18741;DHT22;9499;52.472;13.448;2022-10-16T04:09:54;15.40;99.90
18741;DHT22;9499;52.472;13.448;2022-10-16T04:12:22;15.30;99.90
18741;DHT22;9499;52.472;13.448;2022-10-16T04:14:48;15.40;99.90
18741;DHT22;9499;52.472;13.448;2022-10-16T04:17:16;15.30;99.90
18741;DHT22;9499;52.472;13.448;2022-10-16T04:19:43;15.30;99.90
18741;DHT22;9499;52.472;13.448;2022-10-16T04:22:09;15.20;99.90
18741;DHT22;9499;52.472;13.448;2022-10-16T04:24:36;15.30;99.90
18741;DHT22;9499;52.472;13.448;2022-10-16T04:27:03;15.30;99.90
18741;DHT22;9499;52.472;13.448;2022-10-16T04:29:29;15.30;99.90
18741;DHT22;9499;52.472;13.448;2022-10-16T04:31:56;15.20;99.90
18741;DHT22;9499;52.472;13.448;2022-10-16T04:34:24;15.20;99.90
18741;DHT22;9499;52.472;13.448;2022-10-16T04:36:50;15.20;99.90
18741;DHT22;9499;52.472;13.448;2022-10-16T04:39:17;15.20;99.90
18741;DHT22;9499;52.472;13.448;2022-10-16T04:41:44;15.20;99.90
18741;DHT22;9499;52.472;13.448;2022-10-16T04:44:10;15.10;99.90
18741;DHT22;9499;52.472;13.448;2022-10-16T04:46:37;15.20;99.90
18741;DHT22;9499;52.472;13.448;2022-10-16T04:49:03;15.20;99.90
18741;DHT22;9499;52.472;13.448;2022-10-16T04:51:31;15.20;99.90
18741;DHT22;9499;52.472;13.448;2022-10-16T04:53:58;15.20;99.90
18741;DHT22;9499;52.472;13.448;2022-10-16T04:56:25;15.20;99.90
18741;DHT22;9499;52.472;13.448;2022-10-16T04:58:51;15.20;99.90
18741;DHT22;9499;52.472;13.448;2022-10-16T05:01:18;15.10;99.90
18741;DHT22;9499;52.472;13.448;2022-10-16T05:03:44;15.10;99.90
18741;DHT22;9499;52.472;13.448;2022-10-16T05:06:11;15.10;99.90
18741;DHT22;9499;52.472;13.448;2022-10-16T05:08:39;15.00;99.90
18741;DHT22;9499;52.472;13.448;2022-10-16T05:11:05;15.00;99.90
18741;DHT22;9499;52.472;13.448;2022-10-16T05:13:32;14.90;99.90
18741;DHT22;9499;52.472;13.448;2022-10-16T05:15:58;14.90;99.90
18741;DHT22;9499;52.472;13.448;2022-10-16T05:18:25;14.90;99.90
18741;DHT22;9499;52.472;13.448;2022-10-16T05:20:51;14.90;99.90
18741;DHT22;9499;52.472;13.448;2022-10-16T05:23:18;14.90;99.90
18741;DHT22;9499;52.472;13.448;2022-10-16T05:25:53;14.90;99.90
18741;DHT22;9499;52.472;13.448;2022-10-16T05:28:20;14.90;99.90
18741;DHT22;9499;52.472;13.448;2022-10-16T05:30:47;14.80;99.90
18741;DHT22;9499;52.472;13.448;2022-10-16T05:33:13;14.80;99.90
18741;DHT22;9499;52.472;13.448;2022-10-16T05:35:40;14.80;99.90
18741;DHT22;9499;52.472;13.448;2022-10-16T05:38:06;14.80;99.90
18741;DHT22;9499;52.472;13.448;2022-10-16T05:40:33;14.70;99.90
18741;DHT22;9499;52.472;13.448;2022-10-16T05:43:01;14.70;99.90
18741;DHT22;9499;52.472;13.448;2022-10-16T05:45:28;14.70;99.90
18741;DHT22;9499;52.472;13.448;2022-10-16T05:47:54;14.70;99.90
18741;DHT22;9499;52.472;13.448;2022-10-16T05:50:21;14.70;99.90
18741;DHT22;9499;52.472;13.448;2022-10-16T05:52:47;14.70;99.90
18741;DHT22;9499;52.472;13.448;2022-10-16T05:55:14;14.70;99.90
18741;DHT22;9499;52.472;13.448;2022-10-16T05:57:40;14.80;99.90
18741;DHT22;9499;52.472;13.448;2022-10-16T06:00:10;14.80;99.90
18741;DHT22;9499;52.472;13.448;2022-10-16T06:02:36;14.80;99.90
18741;DHT22;9499;52.472;13.448;2022-10-16T06:05:03;14.80;99.90
18741;DHT22;9499;52.472;13.448;2022-10-16T06:07:34;14.80;99.90
18741;DHT22;9499;52.472;13.448;2022-10-16T06:10:01;14.80;99.90
18741;DHT22;9499;52.472;13.448;2022-10-16T06:12:28;14.90;99.90
18741;DHT22;9499;52.472;13.448;2022-10-16T06:14:54;14.90;99.90
18741;DHT22;9499;52.472;13.448;2022-10-16T06:17:22;14.90;99.90
18741;DHT22;9499;52.472;13.448;2022-10-16T06:19:48;14.90;99.90
18741;DHT22;9499;52.472;13.448;2022-10-16T06:22:15;14.90;99.90
18741;DHT22;9499;52.472;13.448;2022-10-16T06:24:41;14.90;99.90
18741;DHT22;9499;52.472;13.448;2022-10-16T06:27:08;14.90;99.90
18741;DHT22;9499;52.472;13.448;2022-10-16T06:29:35;15.00;99.90
18741;DHT22;9499;52.472;13.448;2022-10-16T06:32:01;15.00;99.90
18741;DHT22;9499;52.472;13.448;2022-10-16T06:34:29;15.00;99.90
18741;DHT22;9499;52.472;13.448;2022-10-16T06:36:56;15.10;99.90
18741;DHT22;9499;52.472;13.448;2022-10-16T06:39:22;15.10;99.90
18741;DHT22;9499;52.472;13.448;2022-10-16T06:41:49;15.10;99.90
18741;DHT22;9499;52.472;13.448;2022-10-16T06:44:15;15.10;99.90
18741;DHT22;9499;52.472;13.448;2022-10-16T06:46:42;15.20;99.90
18741;DHT22;9499;52.472;13.448;2022-10-16T06:49:08;15.10;99.90
18741;DHT22;9499;52.472;13.448;2022-10-16T06:51:36;15.20;99.90
18741;DHT22;9499;52.472;13.448;2022-10-16T06:54:06;15.20;99.90
18741;DHT22;9499;52.472;13.448;2022-10-16T06:56:33;15.20;99.90
18741;DHT22;9499;52.472;13.448;2022-10-16T06:59:00;15.20;99.90
18741;DHT22;9499;52.472;13.448;2022-10-16T07:01:27;15.20;99.90
18741;DHT22;9499;52.472;13.448;2022-10-16T07:03:53;15.20;99.90
18741;DHT22;9499;52.472;13.448;2022-10-16T07:06:25;15.20;99.90
18741;DHT22;9499;52.472;13.448;2022-10-16T07:08:53;15.30;99.90
18741;DHT22;9499;52.472;13.448;2022-10-16T07:11:20;15.30;99.90
18741;DHT22;9499;52.472;13.448;2022-10-16T07:13:48;15.30;99.90
18741;DHT22;9499;52.472;13.448;2022-10-16T07:16:17;15.40;99.90
18741;DHT22;9499;52.472;13.448;2022-10-16T07:18:44;15.50;99.90
18741;DHT22;9499;52.472;13.448;2022-10-16T07:21:13;15.60;99.90
18741;DHT22;9499;52.472;13.448;2022-10-16T07:23:40;15.60;99.90
18741;DHT22;9499;52.472;13.448;2022-10-16T07:26:09;15.60;99.90
18741;DHT22;9499;52.472;13.448;2022-10-16T07:28:36;15.70;99.90
18741;DHT22;9499;52.472;13.448;2022-10-16T07:31:03;15.70;99.90
18741;DHT22;9499;52.472;13.448;2022-10-16T07:33:30;15.80;99.90
18741;DHT22;9499;52.472;13.448;2022-10-16T07:35:56;15.90;99.90
18741;DHT22;9499;52.472;13.448;2022-10-16T07:38:23;15.90;99.90
18741;DHT22;9499;52.472;13.448;2022-10-16T07:40:56;16.00;99.90
18741;DHT22;9499;52.472;13.448;2022-10-16T07:43:24;16.10;99.90
18741;DHT22;9499;52.472;13.448;2022-10-16T07:45:51;16.10;99.90
18741;DHT22;9499;52.472;13.448;2022-10-16T07:48:17;16.20;99.90
18741;DHT22;9499;52.472;13.448;2022-10-16T07:50:44;16.20;99.90
18741;DHT22;9499;52.472;13.448;2022-10-16T07:53:12;16.20;99.90
18741;DHT22;9499;52.472;13.448;2022-10-16T07:55:38;16.30;99.90
18741;DHT22;9499;52.472;13.448;2022-10-16T07:58:06;16.30;99.90
18741;DHT22;9499;52.472;13.448;2022-10-16T08:00:35;16.40;99.90
18741;DHT22;9499;52.472;13.448;2022-10-16T08:03:02;16.40;99.90
18741;DHT22;9499;52.472;13.448;2022-10-16T08:05:29;16.50;99.90
18741;DHT22;9499;52.472;13.448;2022-10-16T08:07:56;16.60;99.90
18741;DHT22;9499;52.472;13.448;2022-10-16T08:10:25;16.60;99.90
18741;DHT22;9499;52.472;13.448;2022-10-16T08:12:53;16.60;99.90
18741;DHT22;9499;52.472;13.448;2022-10-16T08:15:19;16.60;99.90
18741;DHT22;9499;52.472;13.448;2022-10-16T08:17:58;16.70;99.90
18741;DHT22;9499;52.472;13.448;2022-10-16T08:20:26;16.70;99.90
18741;DHT22;9499;52.472;13.448;2022-10-16T08:22:53;16.60;99.90
18741;DHT22;9499;52.472;13.448;2022-10-16T08:25:20;16.70;99.90
18741;DHT22;9499;52.472;13.448;2022-10-16T08:27:47;16.70;99.90
18741;DHT22;9499;52.472;13.448;2022-10-16T08:30:13;16.70;99.90
18741;DHT22;9499;52.472;13.448;2022-10-16T08:32:40;16.80;99.90
18741;DHT22;9499;52.472;13.448;2022-10-16T08:35:09;16.90;99.90
18741;DHT22;9499;52.472;13.448;2022-10-16T08:37:36;16.90;99.90
18741;DHT22;9499;52.472;13.448;2022-10-16T08:40:04;16.90;99.90
18741;DHT22;9499;52.472;13.448;2022-10-16T08:42:45;17.00;99.90
18741;DHT22;9499;52.472;13.448;2022-10-16T08:45:36;17.00;99.90
18741;DHT22;9499;52.472;13.448;2022-10-16T08:48:16;17.00;99.90
18741;DHT22;9499;52.472;13.448;2022-10-16T08:50:45;17.00;99.90
18741;DHT22;9499;52.472;13.448;2022-10-16T08:53:16;17.10;99.90
18741;DHT22;9499;52.472;13.448;2022-10-16T08:55:46;17.10;99.90
18741;DHT22;9499;52.472;13.448;2022-10-16T08:58:14;17.10;99.90
18741;DHT22;9499;52.472;13.448;2022-10-16T09:00:43;17.10;99.90
18741;DHT22;9499;52.472;13.448;2022-10-16T09:03:17;17.10;99.90
18741;DHT22;9499;52.472;13.448;2022-10-16T09:06:17;17.20;99.90
18741;DHT22;9499;52.472;13.448;2022-10-16T09:08:59;17.20;99.90
18741;DHT22;9499;52.472;13.448;2022-10-16T09:11:38;17.20;99.90
18741;DHT22;9499;52.472;13.448;2022-10-16T09:14:32;17.30;99.90
18741;DHT22;9499;52.472;13.448;2022-10-16T09:17:12;17.50;99.90
18741;DHT22;9499;52.472;13.448;2022-10-16T09:19:46;17.50;99.90
18741;DHT22;9499;52.472;13.448;2022-10-16T09:22:18;17.60;99.90
18741;DHT22;9499;52.472;13.448;2022-10-16T09:24:46;17.60;99.90
18741;DHT22;9499;52.472;13.448;2022-10-16T09:27:14;17.70;99.90
18741;DHT22;9499;52.472;13.448;2022-10-16T09:29:41;17.70;99.90
18741;DHT22;9499;52.472;13.448;2022-10-16T09:32:11;17.80;99.90
18741;DHT22;9499;52.472;13.448;2022-10-16T09:34:42;17.80;99.90
18741;DHT22;9499;52.472;13.448;2022-10-16T09:37:13;17.80;99.90
18741;DHT22;9499;52.472;13.448;2022-10-16T09:39:49;17.90;99.90
18741;DHT22;9499;52.472;13.448;2022-10-16T09:42:17;17.90;99.90
18741;DHT22;9499;52.472;13.448;2022-10-16T09:44:47;18.00;99.90
18741;DHT22;9499;52.472;13.448;2022-10-16T09:47:16;18.30;99.90
18741;DHT22;9499;52.472;13.448;2022-10-16T09:49:51;18.60;99.90
18741;DHT22;9499;52.472;13.448;2022-10-16T09:52:19;19.00;99.90
18741;DHT22;9499;52.472;13.448;2022-10-16T09:54:51;19.00;99.90
18741;DHT22;9499;52.472;13.448;2022-10-16T09:57:18;19.00;99.90
18741;DHT22;9499;52.472;13.448;2022-10-16T09:59:46;18.80;99.90
18741;DHT22;9499;52.472;13.448;2022-10-16T10:02:15;18.70;99.90
18741;DHT22;9499;52.472;13.448;2022-10-16T10:04:48;18.60;99.90
18741;DHT22;9499;52.472;13.448;2022-10-16T10:07:23;18.60;99.90
18741;DHT22;9499;52.472;13.448;2022-10-16T10:09:52;18.70;99.90
18741;DHT22;9499;52.472;13.448;2022-10-16T10:12:21;18.70;99.90
18741;DHT22;9499;52.472;13.448;2022-10-16T10:14:49;18.70;99.90
18741;DHT22;9499;52.472;13.448;2022-10-16T10:17:19;18.80;99.90
18741;DHT22;9499;52.472;13.448;2022-10-16T10:19:51;18.70;99.90
18741;DHT22;9499;52.472;13.448;2022-10-16T10:22:32;18.60;99.90
18741;DHT22;9499;52.472;13.448;2022-10-16T10:28:30;18.60;99.90
18741;DHT22;9499;52.472;13.448;2022-10-16T10:31:04;18.60;99.90
18741;DHT22;9499;52.472;13.448;2022-10-16T10:33:39;18.60;99.90
18741;DHT22;9499;52.472;13.448;2022-10-16T10:36:22;18.60;99.90
18741;DHT22;9499;52.472;13.448;2022-10-16T10:38:54;18.70;99.90
18741;DHT22;9499;52.472;13.448;2022-10-16T10:41:39;18.80;99.90
18741;DHT22;9499;52.472;13.448;2022-10-16T10:44:18;18.90;99.90
18741;DHT22;9499;52.472;13.448;2022-10-16T10:46:50;18.90;99.90
18741;DHT22;9499;52.472;13.448;2022-10-16T10:49:27;19.00;99.90
18741;DHT22;9499;52.472;13.448;2022-10-16T10:52:05;19.20;99.90
18741;DHT22;9499;52.472;13.448;2022-10-16T10:54:41;19.40;99.90
18741;DHT22;9499;52.472;13.448;2022-10-16T10:57:19;19.60;99.90
18741;DHT22;9499;52.472;13.448;2022-10-16T11:00:10;19.70;99.90
18741;DHT22;9499;52.472;13.448;2022-10-16T11:02:48;19.90;99.90
18741;DHT22;9499;52.472;13.448;2022-10-16T11:08:19;19.80;99.90
18741;DHT22;9499;52.472;13.448;2022-10-16T11:10:50;19.70;99.90
18741;DHT22;9499;52.472;13.448;2022-10-16T11:13:26;19.70;99.90
18741;DHT22;9499;52.472;13.448;2022-10-16T11:15:58;20.10;99.90
18741;DHT22;9499;52.472;13.448;2022-10-16T11:18:32;20.60;99.90
18741;DHT22;9499;52.472;13.448;2022-10-16T11:21:04;20.80;99.90
18741;DHT22;9499;52.472;13.448;2022-10-16T11:23:38;20.90;99.90
18741;DHT22;9499;52.472;13.448;2022-10-16T11:26:11;21.00;99.90
18741;DHT22;9499;52.472;13.448;2022-10-16T11:28:42;20.90;99.90
18741;DHT22;9499;52.472;13.448;2022-10-16T11:31:17;20.60;99.90
18741;DHT22;9499;52.472;13.448;2022-10-16T11:33:49;20.40;99.90
18741;DHT22;9499;52.472;13.448;2022-10-16T11:36:21;20.10;99.90
18741;DHT22;9499;52.472;13.448;2022-10-16T11:38:53;20.10;99.90
18741;DHT22;9499;52.472;13.448;2022-10-16T11:41:26;20.00;99.90
18741;DHT22;9499;52.472;13.448;2022-10-16T11:44:02;20.00;99.90
18741;DHT22;9499;52.472;13.448;2022-10-16T11:46:34;20.20;99.90
18741;DHT22;9499;52.472;13.448;2022-10-16T11:49:08;20.40;99.90
18741;DHT22;9499;52.472;13.448;2022-10-16T11:51:39;20.50;99.90
18741;DHT22;9499;52.472;13.448;2022-10-16T11:54:16;20.90;99.90
18741;DHT22;9499;52.472;13.448;2022-10-16T11:56:48;21.00;99.90
18741;DHT22;9499;52.472;13.448;2022-10-16T11:59:22;20.90;99.90
18741;DHT22;9499;52.472;13.448;2022-10-16T12:01:56;20.90;99.90
18741;DHT22;9499;52.472;13.448;2022-10-16T12:04:29;20.70;99.90
18741;DHT22;9499;52.472;13.448;2022-10-16T12:07:04;20.60;99.90
18741;DHT22;9499;52.472;13.448;2022-10-16T12:09:34;20.70;99.90
18741;DHT22;9499;52.472;13.448;2022-10-16T12:12:03;20.70;99.90
18741;DHT22;9499;52.472;13.448;2022-10-16T12:14:36;20.70;99.90
18741;DHT22;9499;52.472;13.448;2022-10-16T12:17:23;20.80;99.90
18741;DHT22;9499;52.472;13.448;2022-10-16T12:19:58;20.80;99.90
18741;DHT22;9499;52.472;13.448;2022-10-16T12:22:28;20.80;99.90
18741;DHT22;9499;52.472;13.448;2022-10-16T12:24:55;21.20;99.90
18741;DHT22;9499;52.472;13.448;2022-10-16T12:27:25;21.70;99.90
18741;DHT22;9499;52.472;13.448;2022-10-16T12:29:56;22.10;99.90
18741;DHT22;9499;52.472;13.448;2022-10-16T12:32:28;22.30;99.90
18741;DHT22;9499;52.472;13.448;2022-10-16T12:34:55;22.40;99.90
18741;DHT22;9499;52.472;13.448;2022-10-16T12:37:25;22.50;99.90
18741;DHT22;9499;52.472;13.448;2022-10-16T12:39:53;22.60;99.90
18741;DHT22;9499;52.472;13.448;2022-10-16T12:42:23;22.70;99.90
18741;DHT22;9499;52.472;13.448;2022-10-16T12:44:50;22.70;99.90
18741;DHT22;9499;52.472;13.448;2022-10-16T12:47:22;22.50;99.90
18741;DHT22;9499;52.472;13.448;2022-10-16T12:49:51;22.50;99.90
18741;DHT22;9499;52.472;13.448;2022-10-16T12:52:27;22.60;99.90
18741;DHT22;9499;52.472;13.448;2022-10-16T12:54:56;22.80;99.90
18741;DHT22;9499;52.472;13.448;2022-10-16T12:57:34;23.10;99.90
18741;DHT22;9499;52.472;13.448;2022-10-16T13:00:13;23.40;99.90
18741;DHT22;9499;52.472;13.448;2022-10-16T13:03:11;23.70;99.90
18741;DHT22;9499;52.472;13.448;2022-10-16T13:05:57;23.60;99.90
18741;DHT22;9499;52.472;13.448;2022-10-16T13:08:42;23.70;99.90
18741;DHT22;9499;52.472;13.448;2022-10-16T13:11:17;23.60;99.90
18741;DHT22;9499;52.472;13.448;2022-10-16T13:14:13;23.50;99.90
18741;DHT22;9499;52.472;13.448;2022-10-16T13:16:50;23.40;99.90
18741;DHT22;9499;52.472;13.448;2022-10-16T13:19:28;23.20;99.90
18741;DHT22;9499;52.472;13.448;2022-10-16T13:22:05;23.30;99.90
18741;DHT22;9499;52.472;13.448;2022-10-16T13:24:53;23.30;99.90
18741;DHT22;9499;52.472;13.448;2022-10-16T13:27:31;23.20;99.90
18741;DHT22;9499;52.472;13.448;2022-10-16T13:30:02;22.80;99.90
18741;DHT22;9499;52.472;13.448;2022-10-16T13:32:34;22.80;99.90
18741;DHT22;9499;52.472;13.448;2022-10-16T13:35:01;22.60;99.90
18741;DHT22;9499;52.472;13.448;2022-10-16T13:37:30;22.40;99.90
18741;DHT22;9499;52.472;13.448;2022-10-16T13:40:09;22.00;99.90
18741;DHT22;9499;52.472;13.448;2022-10-16T13:42:43;21.80;99.90
18741;DHT22;9499;52.472;13.448;2022-10-16T13:45:18;21.70;99.90
18741;DHT22;9499;52.472;13.448;2022-10-16T13:47:44;21.90;99.90
18741;DHT22;9499;52.472;13.448;2022-10-16T13:50:14;21.80;99.90
18741;DHT22;9499;52.472;13.448;2022-10-16T13:52:42;21.70;99.90
18741;DHT22;9499;52.472;13.448;2022-10-16T13:55:11;21.70;99.90
18741;DHT22;9499;52.472;13.448;2022-10-16T13:57:38;21.50;99.90
18741;DHT22;9499;52.472;13.448;2022-10-16T14:00:18;21.40;99.90
18741;DHT22;9499;52.472;13.448;2022-10-16T14:02:45;21.40;99.90
18741;DHT22;9499;52.472;13.448;2022-10-16T14:05:16;21.60;99.90
18741;DHT22;9499;52.472;13.448;2022-10-16T14:07:49;21.70;99.90
18741;DHT22;9499;52.472;13.448;2022-10-16T14:10:22;21.80;99.90
18741;DHT22;9499;52.472;13.448;2022-10-16T14:12:58;21.70;99.90
18741;DHT22;9499;52.472;13.448;2022-10-16T14:15:26;21.50;99.90
18741;DHT22;9499;52.472;13.448;2022-10-16T14:17:53;21.40;99.90
18741;DHT22;9499;52.472;13.448;2022-10-16T14:20:22;21.40;99.90
18741;DHT22;9499;52.472;13.448;2022-10-16T14:23:00;21.20;99.90
18741;DHT22;9499;52.472;13.448;2022-10-16T14:25:29;21.10;99.90
18741;DHT22;9499;52.472;13.448;2022-10-16T14:28:04;21.00;99.90
18741;DHT22;9499;52.472;13.448;2022-10-16T14:30:32;20.90;99.90
18741;DHT22;9499;52.472;13.448;2022-10-16T14:33:01;20.90;99.90
18741;DHT22;9499;52.472;13.448;2022-10-16T14:35:30;20.80;99.90
18741;DHT22;9499;52.472;13.448;2022-10-16T14:38:00;20.70;99.90
18741;DHT22;9499;52.472;13.448;2022-10-16T14:40:28;20.70;99.90
18741;DHT22;9499;52.472;13.448;2022-10-16T14:42:55;20.70;99.90
18741;DHT22;9499;52.472;13.448;2022-10-16T14:45:25;20.70;99.90
18741;DHT22;9499;52.472;13.448;2022-10-16T14:47:54;20.70;99.90
18741;DHT22;9499;52.472;13.448;2022-10-16T14:50:21;20.60;99.90
18741;DHT22;9499;52.472;13.448;2022-10-16T14:52:48;20.60;99.90
18741;DHT22;9499;52.472;13.448;2022-10-16T14:55:16;20.50;99.90
18741;DHT22;9499;52.472;13.448;2022-10-16T14:57:43;20.50;99.90
18741;DHT22;9499;52.472;13.448;2022-10-16T15:00:17;20.40;99.90
18741;DHT22;9499;52.472;13.448;2022-10-16T15:02:44;20.40;99.90
18741;DHT22;9499;52.472;13.448;2022-10-16T15:05:15;20.30;99.90
18741;DHT22;9499;52.472;13.448;2022-10-16T15:07:42;20.30;99.90
18741;DHT22;9499;52.472;13.448;2022-10-16T15:10:09;20.30;99.90
18741;DHT22;9499;52.472;13.448;2022-10-16T15:12:37;20.20;99.90
18741;DHT22;9499;52.472;13.448;2022-10-16T15:15:32;20.20;99.90
18741;DHT22;9499;52.472;13.448;2022-10-16T15:17:59;20.20;99.90
18741;DHT22;9499;52.472;13.448;2022-10-16T15:20:27;20.20;99.90
18741;DHT22;9499;52.472;13.448;2022-10-16T15:22:53;20.10;99.90
18741;DHT22;9499;52.472;13.448;2022-10-16T15:25:29;20.10;99.90
18741;DHT22;9499;52.472;13.448;2022-10-16T15:27:57;20.00;99.90
18741;DHT22;9499;52.472;13.448;2022-10-16T15:30:25;20.00;99.90
18741;DHT22;9499;52.472;13.448;2022-10-16T15:32:51;19.90;99.90
18741;DHT22;9499;52.472;13.448;2022-10-16T15:35:18;19.90;99.90
18741;DHT22;9499;52.472;13.448;2022-10-16T15:37:46;19.90;99.90
18741;DHT22;9499;52.472;13.448;2022-10-16T15:40:13;19.80;99.90
18741;DHT22;9499;52.472;13.448;2022-10-16T15:42:40;19.70;99.90
18741;DHT22;9499;52.472;13.448;2022-10-16T15:45:09;19.70;99.90
18741;DHT22;9499;52.472;13.448;2022-10-16T15:47:35;19.70;99.90
18741;DHT22;9499;52.472;13.448;2022-10-16T15:50:02;19.60;99.90
18741;DHT22;9499;52.472;13.448;2022-10-16T15:52:29;19.60;99.90
18741;DHT22;9499;52.472;13.448;2022-10-16T15:54:57;19.60;99.90